sensor_id;sensor_type;location;lat;lon;timestamp;pressure;altitude;pressure_sealevel;temperature;humidity
64460;BME280;50828;53.756;21.140;2023-02-12T00:03:44;101146.86;;;1.12;71.59
64460;BME280;50828;53.756;21.140;2023-02-12T00:08:53;101157.42;;;1.10;71.44
64460;BME280;50828;53.756;21.140;2023-02-12T00:14:02;101167.08;;;1.07;71.48
64460;BME280;50828;53.756;21.140;2023-02-12T00:19:11;101162.34;;;1.03;71.45
64460;BME280;50828;53.756;21.140;2023-02-12T00:24:20;101159.85;;;0.99;71.10
64460;BME280;50828;53.756;21.140;2023-02-12T00:29:28;101169.83;;;0.94;71.14
64460;BME280;50828;53.756;21.140;2023-02-12T00:34:36;101184.13;;;0.88;71.13
64460;BME280;50828;53.756;21.140;2023-02-12T00:39:43;101191.16;;;0.83;71.01
64460;BME280;50828;53.756;21.140;2023-02-12T00:44:51;101189.51;;;0.78;70.93
64460;BME280;50828;53.756;21.140;2023-02-12T00:50:00;101190.44;;;0.71;70.81
64460;BME280;50828;53.756;21.140;2023-02-12T00:55:09;101190.14;;;0.64;70.72
64460;BME280;50828;53.756;21.140;2023-02-12T01:00:18;101208.40;;;0.58;70.83
64460;BME280;50828;53.756;21.140;2023-02-12T01:05:26;101214.19;;;0.51;70.82
64460;BME280;50828;53.756;21.140;2023-02-12T01:10:35;101204.71;;;0.45;70.79
64460;BME280;50828;53.756;21.140;2023-02-12T01:15:43;101221.23;;;0.39;70.77
64460;BME280;50828;53.756;21.140;2023-02-12T01:20:51;101232.89;;;0.33;70.97
64460;BME280;50828;53.756;21.140;2023-02-12T01:26:01;101241.11;;;0.27;70.81
64460;BME280;50828;53.756;21.140;2023-02-12T01:31:15;101242.19;;;0.21;70.95
64460;BME280;50828;53.756;21.140;2023-02-12T01:36:25;101250.92;;;0.15;70.86
64460;BME280;50828;53.756;21.140;2023-02-12T01:41:35;101266.75;;;0.10;70.87
64460;BME280;50828;53.756;21.140;2023-02-12T01:46:45;101280.33;;;0.05;71.06
64460;BME280;50828;53.756;21.140;2023-02-12T01:52:00;101288.70;;;-0.00;71.13
64460;BME280;50828;53.756;21.140;2023-02-12T01:57:12;101298.29;;;-0.06;70.97
64460;BME280;50828;53.756;21.140;2023-02-12T02:02:21;101315.85;;;-0.10;70.96
64460;BME280;50828;53.756;21.140;2023-02-12T02:07:30;101330.45;;;-0.15;71.10
64460;BME280;50828;53.756;21.140;2023-02-12T02:12:37;101341.24;;;-0.21;71.07
64460;BME280;50828;53.756;21.140;2023-02-12T02:18:08;101362.07;;;-0.26;71.27
64460;BME280;50828;53.756;21.140;2023-02-12T02:23:47;101366.63;;;-0.30;71.19
64460;BME280;50828;53.756;21.140;2023-02-12T02:29:12;101362.35;;;-0.35;71.23
64460;BME280;50828;53.756;21.140;2023-02-12T02:34:32;101375.42;;;-0.39;71.30
64460;BME280;50828;53.756;21.140;2023-02-12T02:39:49;101383.97;;;-0.43;71.13
64460;BME280;50828;53.756;21.140;2023-02-12T02:45:03;101390.80;;;-0.47;71.17
64460;BME280;50828;53.756;21.140;2023-02-12T02:50:15;101398.13;;;-0.51;71.34
64460;BME280;50828;53.756;21.140;2023-02-12T02:55:29;101402.69;;;-0.56;71.32
64460;BME280;50828;53.756;21.140;2023-02-12T03:00:41;101403.45;;;-0.60;71.11
64460;BME280;50828;53.756;21.140;2023-02-12T03:05:56;101405.60;;;-0.64;70.97
64460;BME280;50828;53.756;21.140;2023-02-12T03:11:11;101419.15;;;-0.68;70.68
64460;BME280;50828;53.756;21.140;2023-02-12T03:16:22;101427.83;;;-0.74;70.69
64460;BME280;50828;53.756;21.140;2023-02-12T03:21:38;101433.38;;;-0.79;70.63
64460;BME280;50828;53.756;21.140;2023-02-12T03:26:51;101440.65;;;-0.85;70.55
64460;BME280;50828;53.756;21.140;2023-02-12T03:32:10;101440.48;;;-0.92;70.49
64460;BME280;50828;53.756;21.140;2023-02-12T03:37:26;101438.38;;;-0.99;69.97
64460;BME280;50828;53.756;21.140;2023-02-12T03:42:42;101434.90;;;-1.06;70.00
64460;BME280;50828;53.756;21.140;2023-02-12T03:47:55;101444.55;;;-1.13;69.96
64460;BME280;50828;53.756;21.140;2023-02-12T03:53:06;101464.91;;;-1.21;69.80
64460;BME280;50828;53.756;21.140;2023-02-12T03:58:18;101475.92;;;-1.28;69.91
64460;BME280;50828;53.756;21.140;2023-02-12T04:03:30;101492.98;;;-1.35;69.71
64460;BME280;50828;53.756;21.140;2023-02-12T04:08:38;101497.82;;;-1.41;69.62
64460;BME280;50828;53.756;21.140;2023-02-12T04:13:56;101510.07;;;-1.47;69.74
64460;BME280;50828;53.756;21.140;2023-02-12T04:19:11;101514.02;;;-1.54;69.70
64460;BME280;50828;53.756;21.140;2023-02-12T04:24:30;101512.41;;;-1.61;69.39
64460;BME280;50828;53.756;21.140;2023-02-12T04:29:49;101526.52;;;-1.68;69.32
64460;BME280;50828;53.756;21.140;2023-02-12T04:35:01;101532.77;;;-1.73;69.93
64460;BME280;50828;53.756;21.140;2023-02-12T04:40:14;101540.19;;;-1.78;70.12
64460;BME280;50828;53.756;21.140;2023-02-12T04:45:27;101547.82;;;-1.82;70.15
64460;BME280;50828;53.756;21.140;2023-02-12T04:50:40;101550.66;;;-1.86;70.28
64460;BME280;50828;53.756;21.140;2023-02-12T04:55:49;101540.68;;;-1.90;70.18
64460;BME280;50828;53.756;21.140;2023-02-12T05:00:59;101539.86;;;-1.93;70.18
64460;BME280;50828;53.756;21.140;2023-02-12T05:06:09;101541.94;;;-1.98;69.84
64460;BME280;50828;53.756;21.140;2023-02-12T05:11:17;101547.92;;;-2.05;69.63
64460;BME280;50828;53.756;21.140;2023-02-12T05:16:25;101559.03;;;-2.14;69.30
64460;BME280;50828;53.756;21.140;2023-02-12T05:21:34;101561.83;;;-2.22;69.28
64460;BME280;50828;53.756;21.140;2023-02-12T05:26:43;101571.24;;;-2.29;69.19
64460;BME280;50828;53.756;21.140;2023-02-12T05:31:52;101580.25;;;-2.39;69.04
64460;BME280;50828;53.756;21.140;2023-02-12T05:36:59;101589.58;;;-2.47;68.92
64460;BME280;50828;53.756;21.140;2023-02-12T05:42:07;101596.17;;;-2.56;69.07
64460;BME280;50828;53.756;21.140;2023-02-12T05:47:16;101601.73;;;-2.64;69.00
64460;BME280;50828;53.756;21.140;2023-02-12T05:52:23;101606.77;;;-2.72;68.80
64460;BME280;50828;53.756;21.140;2023-02-12T05:57:31;101607.73;;;-2.79;68.82
64460;BME280;50828;53.756;21.140;2023-02-12T06:02:39;101603.61;;;-2.88;68.79
64460;BME280;50828;53.756;21.140;2023-02-12T06:07:47;101608.70;;;-2.94;68.68
64460;BME280;50828;53.756;21.140;2023-02-12T06:12:56;101604.09;;;-3.02;68.76
64460;BME280;50828;53.756;21.140;2023-02-12T06:18:04;101610.23;;;-3.08;68.96
64460;BME280;50828;53.756;21.140;2023-02-12T06:23:13;101616.40;;;-3.14;68.81
64460;BME280;50828;53.756;21.140;2023-02-12T06:28:21;101627.92;;;-3.19;68.83
64460;BME280;50828;53.756;21.140;2023-02-12T06:33:30;101626.13;;;-3.24;68.81
64460;BME280;50828;53.756;21.140;2023-02-12T06:38:39;101630.98;;;-3.28;69.09
64460;BME280;50828;53.756;21.140;2023-02-12T06:43:48;101645.68;;;-3.31;69.14
64460;BME280;50828;53.756;21.140;2023-02-12T06:48:58;101649.20;;;-3.34;69.35
64460;BME280;50828;53.756;21.140;2023-02-12T06:54:09;101658.52;;;-3.34;69.65
64460;BME280;50828;53.756;21.140;2023-02-12T06:59:19;101669.04;;;-3.33;69.96
64460;BME280;50828;53.756;21.140;2023-02-12T07:04:28;101679.86;;;-3.29;69.97
64460;BME280;50828;53.756;21.140;2023-02-12T07:09:37;101676.94;;;-3.25;70.38
64460;BME280;50828;53.756;21.140;2023-02-12T07:14:45;101673.89;;;-3.19;70.56
64460;BME280;50828;53.756;21.140;2023-02-12T07:19:54;101676.70;;;-3.10;71.01
64460;BME280;50828;53.756;21.140;2023-02-12T07:25:02;101681.67;;;-2.97;71.17
64460;BME280;50828;53.756;21.140;2023-02-12T07:30:11;101670.74;;;-2.86;71.34
64460;BME280;50828;53.756;21.140;2023-02-12T07:35:20;101669.80;;;-2.75;71.38
64460;BME280;50828;53.756;21.140;2023-02-12T07:40:28;101672.14;;;-2.63;71.51
64460;BME280;50828;53.756;21.140;2023-02-12T07:45:36;101675.49;;;-2.52;71.58
64460;BME280;50828;53.756;21.140;2023-02-12T07:50:44;101685.36;;;-2.42;71.69
64460;BME280;50828;53.756;21.140;2023-02-12T07:55:52;101692.66;;;-2.32;71.82
64460;BME280;50828;53.756;21.140;2023-02-12T08:01:00;101696.64;;;-2.22;71.89
64460;BME280;50828;53.756;21.140;2023-02-12T08:06:20;101701.02;;;-2.11;72.23
64460;BME280;50828;53.756;21.140;2023-02-12T08:11:29;101700.55;;;-2.00;72.15
64460;BME280;50828;53.756;21.140;2023-02-12T08:16:39;101696.13;;;-1.89;72.38
64460;BME280;50828;53.756;21.140;2023-02-12T08:21:50;101693.02;;;-1.79;72.51
64460;BME280;50828;53.756;21.140;2023-02-12T08:26:58;101696.19;;;-1.68;72.63
64460;BME280;50828;53.756;21.140;2023-02-12T08:32:07;101703.48;;;-1.57;72.60
64460;BME280;50828;53.756;21.140;2023-02-12T08:37:19;101702.19;;;-1.44;72.75
64460;BME280;50828;53.756;21.140;2023-02-12T08:42:28;101705.54;;;-1.32;72.84
64460;BME280;50828;53.756;21.140;2023-02-12T08:47:36;101718.75;;;-1.19;72.94
64460;BME280;50828;53.756;21.140;2023-02-12T08:52:44;101713.14;;;-1.06;72.89
64460;BME280;50828;53.756;21.140;2023-02-12T08:57:52;101703.16;;;-0.94;72.93
64460;BME280;50828;53.756;21.140;2023-02-12T09:03:02;101697.64;;;-0.77;72.97
64460;BME280;50828;53.756;21.140;2023-02-12T09:08:10;101692.11;;;-0.60;72.90
64460;BME280;50828;53.756;21.140;2023-02-12T09:13:18;101687.38;;;-0.44;72.65
64460;BME280;50828;53.756;21.140;2023-02-12T09:18:26;101691.09;;;-0.30;72.70
64460;BME280;50828;53.756;21.140;2023-02-12T09:23:35;101699.93;;;-0.18;72.40
64460;BME280;50828;53.756;21.140;2023-02-12T09:28:43;101705.76;;;-0.08;72.51
64460;BME280;50828;53.756;21.140;2023-02-12T09:33:54;101706.19;;;0.01;72.23
64460;BME280;50828;53.756;21.140;2023-02-12T09:39:03;101715.09;;;0.16;72.18
64460;BME280;50828;53.756;21.140;2023-02-12T09:44:19;101722.66;;;0.27;71.87
64460;BME280;50828;53.756;21.140;2023-02-12T09:49:52;101724.57;;;0.39;71.51
64460;BME280;50828;53.756;21.140;2023-02-12T09:55:04;101725.12;;;0.53;71.17
64460;BME280;50828;53.756;21.140;2023-02-12T10:00:17;101721.48;;;0.67;71.29
64460;BME280;50828;53.756;21.140;2023-02-12T10:05:30;101736.91;;;0.81;70.92
64460;BME280;50828;53.756;21.140;2023-02-12T10:10:49;101740.14;;;0.91;70.47
64460;BME280;50828;53.756;21.140;2023-02-12T10:16:02;101742.65;;;1.01;70.19
64460;BME280;50828;53.756;21.140;2023-02-12T10:21:26;101731.29;;;1.12;69.57
64460;BME280;50828;53.756;21.140;2023-02-12T10:26:39;101728.59;;;1.23;69.66
64460;BME280;50828;53.756;21.140;2023-02-12T10:31:52;101721.02;;;1.33;69.27
64460;BME280;50828;53.756;21.140;2023-02-12T10:37:13;101717.23;;;1.42;69.02
64460;BME280;50828;53.756;21.140;2023-02-12T10:42:29;101718.52;;;1.52;68.66
64460;BME280;50828;53.756;21.140;2023-02-12T10:47:41;101710.20;;;1.61;68.43
64460;BME280;50828;53.756;21.140;2023-02-12T10:52:56;101698.57;;;1.69;68.47
64460;BME280;50828;53.756;21.140;2023-02-12T10:58:19;101704.69;;;1.80;68.23
64460;BME280;50828;53.756;21.140;2023-02-12T11:03:31;101708.91;;;1.90;67.96
64460;BME280;50828;53.756;21.140;2023-02-12T11:08:44;101709.92;;;1.98;67.17
64460;BME280;50828;53.756;21.140;2023-02-12T11:13:58;101703.64;;;2.05;66.72
64460;BME280;50828;53.756;21.140;2023-02-12T11:19:19;101700.10;;;2.10;66.70
64460;BME280;50828;53.756;21.140;2023-02-12T11:24:33;101686.26;;;2.13;66.39
64460;BME280;50828;53.756;21.140;2023-02-12T11:29:41;101665.79;;;2.15;66.30
64460;BME280;50828;53.756;21.140;2023-02-12T11:35:08;101654.94;;;2.21;65.24
64460;BME280;50828;53.756;21.140;2023-02-12T11:40:24;101654.81;;;2.24;65.11
64460;BME280;50828;53.756;21.140;2023-02-12T11:45:35;101648.40;;;2.25;65.11
64460;BME280;50828;53.756;21.140;2023-02-12T11:50:52;101643.94;;;2.28;65.00
64460;BME280;50828;53.756;21.140;2023-02-12T11:56:03;101638.24;;;2.30;64.99
64460;BME280;50828;53.756;21.140;2023-02-12T12:01:15;101614.21;;;2.28;64.68
64460;BME280;50828;53.756;21.140;2023-02-12T12:06:33;101626.44;;;2.41;64.26
64460;BME280;50828;53.756;21.140;2023-02-12T12:11:49;101631.89;;;2.44;64.50
64460;BME280;50828;53.756;21.140;2023-02-12T12:17:04;101624.27;;;2.47;64.10
64460;BME280;50828;53.756;21.140;2023-02-12T12:22:48;101618.45;;;2.52;64.71
64460;BME280;50828;53.756;21.140;2023-02-12T12:28:04;101610.85;;;2.55;65.01
64460;BME280;50828;53.756;21.140;2023-02-12T12:33:28;101605.03;;;2.61;64.75
64460;BME280;50828;53.756;21.140;2023-02-12T12:38:45;101594.34;;;2.67;64.73
64460;BME280;50828;53.756;21.140;2023-02-12T12:44:07;101597.02;;;2.71;64.87
64460;BME280;50828;53.756;21.140;2023-02-12T12:49:31;101606.30;;;2.75;65.25
64460;BME280;50828;53.756;21.140;2023-02-12T12:55:02;101606.00;;;2.78;65.02
64460;BME280;50828;53.756;21.140;2023-02-12T13:00:26;101598.73;;;2.80;65.17
64460;BME280;50828;53.756;21.140;2023-02-12T13:11:54;101611.53;;;2.87;64.27
64460;BME280;50828;53.756;21.140;2023-02-12T13:17:15;101617.37;;;2.83;64.31
64460;BME280;50828;53.756;21.140;2023-02-12T13:22:31;101611.27;;;2.81;64.60
64460;BME280;50828;53.756;21.140;2023-02-12T13:27:44;101606.04;;;2.81;64.66
64460;BME280;50828;53.756;21.140;2023-02-12T13:33:02;101603.25;;;2.81;64.66
64460;BME280;50828;53.756;21.140;2023-02-12T13:38:20;101592.63;;;2.80;64.45
64460;BME280;50828;53.756;21.140;2023-02-12T13:43:48;101580.64;;;2.81;64.56
64460;BME280;50828;53.756;21.140;2023-02-12T13:49:08;101581.70;;;2.82;64.41
64460;BME280;50828;53.756;21.140;2023-02-12T13:54:36;101581.38;;;2.84;64.27
64460;BME280;50828;53.756;21.140;2023-02-12T13:59:48;101580.16;;;2.84;64.10
64460;BME280;50828;53.756;21.140;2023-02-12T14:05:00;101578.29;;;2.87;64.03
64460;BME280;50828;53.756;21.140;2023-02-12T14:10:21;101581.80;;;2.88;63.69
64460;BME280;50828;53.756;21.140;2023-02-12T14:15:35;101586.67;;;2.88;63.44
64460;BME280;50828;53.756;21.140;2023-02-12T14:20:44;101579.52;;;2.86;63.36
64460;BME280;50828;53.756;21.140;2023-02-12T14:26:07;101570.98;;;2.86;63.14
64460;BME280;50828;53.756;21.140;2023-02-12T14:37:37;101545.67;;;2.82;63.08
64460;BME280;50828;53.756;21.140;2023-02-12T14:42:55;101518.19;;;2.82;62.75
64460;BME280;50828;53.756;21.140;2023-02-12T14:48:04;101507.01;;;2.78;62.44
64460;BME280;50828;53.756;21.140;2023-02-12T14:53:31;101509.55;;;2.73;62.53
64460;BME280;50828;53.756;21.140;2023-02-12T14:58:42;101513.65;;;2.68;62.45
64460;BME280;50828;53.756;21.140;2023-02-12T15:03:55;101512.02;;;2.63;62.72
64460;BME280;50828;53.756;21.140;2023-02-12T15:09:10;101507.23;;;2.58;62.79
64460;BME280;50828;53.756;21.140;2023-02-12T15:14:26;101499.15;;;2.52;62.75
64460;BME280;50828;53.756;21.140;2023-02-12T15:19:41;101500.65;;;2.48;63.12
64460;BME280;50828;53.756;21.140;2023-02-12T15:24:51;101504.55;;;2.41;63.13
64460;BME280;50828;53.756;21.140;2023-02-12T15:29:59;101513.66;;;2.34;63.14
64460;BME280;50828;53.756;21.140;2023-02-12T15:35:22;101516.52;;;2.28;63.43
64460;BME280;50828;53.756;21.140;2023-02-12T15:40:32;101514.84;;;2.22;63.45
64460;BME280;50828;53.756;21.140;2023-02-12T15:45:51;101518.23;;;2.16;63.55
64460;BME280;50828;53.756;21.140;2023-02-12T15:51:04;101527.88;;;2.11;63.88
64460;BME280;50828;53.756;21.140;2023-02-12T15:56:18;101527.58;;;2.04;64.10
64460;BME280;50828;53.756;21.140;2023-02-12T16:01:28;101538.23;;;1.97;64.36
64460;BME280;50828;53.756;21.140;2023-02-12T16:06:37;101535.36;;;1.91;64.61
64460;BME280;50828;53.756;21.140;2023-02-12T16:11:46;101525.55;;;1.87;64.84
64460;BME280;50828;53.756;21.140;2023-02-12T16:16:57;101521.32;;;1.83;64.84
64460;BME280;50828;53.756;21.140;2023-02-12T16:22:11;101525.40;;;1.79;64.93
64460;BME280;50828;53.756;21.140;2023-02-12T16:27:26;101518.73;;;1.75;64.96
64460;BME280;50828;53.756;21.140;2023-02-12T16:32:37;101520.59;;;1.72;65.45
64460;BME280;50828;53.756;21.140;2023-02-12T16:37:50;101529.39;;;1.69;65.48
64460;BME280;50828;53.756;21.140;2023-02-12T16:43:20;101524.98;;;1.66;65.77
64460;BME280;50828;53.756;21.140;2023-02-12T16:48:29;101534.85;;;1.64;66.08
64460;BME280;50828;53.756;21.140;2023-02-12T16:53:39;101534.16;;;1.64;66.64
64460;BME280;50828;53.756;21.140;2023-02-12T16:58:56;101537.42;;;1.62;66.96
64460;BME280;50828;53.756;21.140;2023-02-12T17:04:06;101528.71;;;1.61;67.45
64460;BME280;50828;53.756;21.140;2023-02-12T17:09:16;101532.86;;;1.59;67.62
64460;BME280;50828;53.756;21.140;2023-02-12T17:14:23;101534.87;;;1.56;68.05
64460;BME280;50828;53.756;21.140;2023-02-12T17:19:31;101525.27;;;1.53;68.31
64460;BME280;50828;53.756;21.140;2023-02-12T17:24:39;101521.05;;;1.52;68.57
64460;BME280;50828;53.756;21.140;2023-02-12T17:29:47;101524.71;;;1.51;68.86
64460;BME280;50828;53.756;21.140;2023-02-12T17:34:56;101517.20;;;1.50;69.09
64460;BME280;50828;53.756;21.140;2023-02-12T17:40:06;101519.27;;;1.49;69.43
64460;BME280;50828;53.756;21.140;2023-02-12T17:45:17;101514.94;;;1.49;69.89
64460;BME280;50828;53.756;21.140;2023-02-12T17:50:26;101497.12;;;1.52;70.01
64460;BME280;50828;53.756;21.140;2023-02-12T17:55:39;101485.19;;;1.55;70.39
64460;BME280;50828;53.756;21.140;2023-02-12T18:00:47;101477.06;;;1.57;70.41
64460;BME280;50828;53.756;21.140;2023-02-12T18:05:56;101473.27;;;1.58;70.62
64460;BME280;50828;53.756;21.140;2023-02-12T18:11:09;101467.21;;;1.59;70.65
64460;BME280;50828;53.756;21.140;2023-02-12T18:16:18;101463.42;;;1.61;70.96
64460;BME280;50828;53.756;21.140;2023-02-12T18:21:27;101461.89;;;1.62;71.10
64460;BME280;50828;53.756;21.140;2023-02-12T18:26:36;101450.41;;;1.62;71.00
64460;BME280;50828;53.756;21.140;2023-02-12T18:31:45;101451.59;;;1.70;71.15
64460;BME280;50828;53.756;21.140;2023-02-12T18:36:54;101453.04;;;1.73;71.43
64460;BME280;50828;53.756;21.140;2023-02-12T18:42:02;101450.65;;;1.76;71.49
64460;BME280;50828;53.756;21.140;2023-02-12T18:47:11;101450.15;;;1.77;71.57
64460;BME280;50828;53.756;21.140;2023-02-12T18:52:20;101442.89;;;1.78;71.79
64460;BME280;50828;53.756;21.140;2023-02-12T18:57:28;101444.83;;;1.80;71.97
64460;BME280;50828;53.756;21.140;2023-02-12T19:02:36;101447.45;;;1.81;72.01
64460;BME280;50828;53.756;21.140;2023-02-12T19:07:44;101443.11;;;1.81;72.40
64460;BME280;50828;53.756;21.140;2023-02-12T19:12:52;101431.66;;;1.82;72.51
64460;BME280;50828;53.756;21.140;2023-02-12T19:18:02;101426.96;;;1.82;72.44
64460;BME280;50828;53.756;21.140;2023-02-12T19:23:11;101424.20;;;1.84;72.56
64460;BME280;50828;53.756;21.140;2023-02-12T19:28:20;101417.44;;;1.84;72.75
64460;BME280;50828;53.756;21.140;2023-02-12T19:33:28;101407.72;;;1.85;72.98
64460;BME280;50828;53.756;21.140;2023-02-12T19:38:37;101408.61;;;1.86;73.16
64460;BME280;50828;53.756;21.140;2023-02-12T19:43:46;101410.39;;;1.88;73.17
64460;BME280;50828;53.756;21.140;2023-02-12T19:48:57;101405.88;;;1.89;73.29
64460;BME280;50828;53.756;21.140;2023-02-12T19:54:06;101408.86;;;1.91;73.57
64460;BME280;50828;53.756;21.140;2023-02-12T19:59:17;101411.66;;;1.93;73.79
64460;BME280;50828;53.756;21.140;2023-02-12T20:04:26;101396.61;;;1.96;73.65
64460;BME280;50828;53.756;21.140;2023-02-12T20:09:35;101385.17;;;1.97;73.91
64460;BME280;50828;53.756;21.140;2023-02-12T20:14:44;101387.66;;;2.02;73.86
64460;BME280;50828;53.756;21.140;2023-02-12T20:19:52;101385.98;;;2.07;73.97
64460;BME280;50828;53.756;21.140;2023-02-12T20:25:00;101388.30;;;2.11;74.06
64460;BME280;50828;53.756;21.140;2023-02-12T20:30:10;101383.48;;;2.14;74.28
64460;BME280;50828;53.756;21.140;2023-02-12T20:35:18;101379.02;;;2.17;74.45
64460;BME280;50828;53.756;21.140;2023-02-12T20:40:26;101379.09;;;2.21;74.34
64460;BME280;50828;53.756;21.140;2023-02-12T20:45:35;101387.67;;;2.27;74.45
64460;BME280;50828;53.756;21.140;2023-02-12T20:50:43;101383.41;;;2.32;74.49
64460;BME280;50828;53.756;21.140;2023-02-12T20:55:52;101378.42;;;2.36;74.68
64460;BME280;50828;53.756;21.140;2023-02-12T21:01:07;101379.20;;;2.42;74.72
64460;BME280;50828;53.756;21.140;2023-02-12T21:06:16;101376.47;;;2.47;74.99
64460;BME280;50828;53.756;21.140;2023-02-12T21:11:26;101373.58;;;2.52;74.96
64460;BME280;50828;53.756;21.140;2023-02-12T21:16:36;101373.27;;;2.55;75.18
64460;BME280;50828;53.756;21.140;2023-02-12T21:21:46;101371.59;;;2.60;75.14
64460;BME280;50828;53.756;21.140;2023-02-12T21:26:56;101372.70;;;2.65;75.36
64460;BME280;50828;53.756;21.140;2023-02-12T21:32:05;101373.45;;;2.68;75.58
64460;BME280;50828;53.756;21.140;2023-02-12T21:37:13;101381.35;;;2.74;75.55
64460;BME280;50828;53.756;21.140;2023-02-12T21:42:21;101376.56;;;2.82;75.72
64460;BME280;50828;53.756;21.140;2023-02-12T21:47:29;101372.98;;;2.89;75.69
64460;BME280;50828;53.756;21.140;2023-02-12T21:52:38;101366.63;;;2.96;75.75
64460;BME280;50828;53.756;21.140;2023-02-12T21:57:46;101367.05;;;3.02;75.66
64460;BME280;50828;53.756;21.140;2023-02-12T22:02:55;101362.05;;;3.08;75.79
64460;BME280;50828;53.756;21.140;2023-02-12T22:08:02;101349.76;;;3.14;75.75
64460;BME280;50828;53.756;21.140;2023-02-12T22:13:11;101351.38;;;3.20;75.55
64460;BME280;50828;53.756;21.140;2023-02-12T22:18:19;101351.09;;;3.25;75.69
64460;BME280;50828;53.756;21.140;2023-02-12T22:23:31;101347.48;;;3.30;75.83
64460;BME280;50828;53.756;21.140;2023-02-12T22:28:42;101338.80;;;3.34;75.72
64460;BME280;50828;53.756;21.140;2023-02-12T22:33:50;101335.17;;;3.37;75.91
64460;BME280;50828;53.756;21.140;2023-02-12T22:39:00;101332.59;;;3.39;76.14
64460;BME280;50828;53.756;21.140;2023-02-12T22:44:10;101327.57;;;3.43;76.10
64460;BME280;50828;53.756;21.140;2023-02-12T22:49:19;101322.36;;;3.46;75.87
64460;BME280;50828;53.756;21.140;2023-02-12T22:54:27;101318.75;;;3.50;76.20
64460;BME280;50828;53.756;21.140;2023-02-12T22:59:36;101310.93;;;3.54;75.87
64460;BME280;50828;53.756;21.140;2023-02-12T23:04:44;101301.23;;;3.59;75.97
64460;BME280;50828;53.756;21.140;2023-02-12T23:09:52;101297.77;;;3.62;76.03
64460;BME280;50828;53.756;21.140;2023-02-12T23:15:01;101282.80;;;3.67;76.00
64460;BME280;50828;53.756;21.140;2023-02-12T23:20:10;101282.66;;;3.71;76.07
64460;BME280;50828;53.756;21.140;2023-02-12T23:25:18;101276.08;;;3.76;76.13
64460;BME280;50828;53.756;21.140;2023-02-12T23:30:26;101265.64;;;3.80;75.95
64460;BME280;50828;53.756;21.140;2023-02-12T23:35:34;101257.80;;;3.82;75.95
64460;BME280;50828;53.756;21.140;2023-02-12T23:40:43;101254.33;;;3.85;76.12
64460;BME280;50828;53.756;21.140;2023-02-12T23:45:51;101253.83;;;3.87;76.16
64460;BME280;50828;53.756;21.140;2023-02-12T23:50:59;101249.13;;;3.89;76.11
64460;BME280;50828;53.756;21.140;2023-02-12T23:56:08;101237.10;;;3.91;75.97
